Time;durP1;ratioP1;P1;durP2;ratioP2;P2;SDS_P1;SDS_P2;PMS_P1;PMS_P2;Temp;Humidity;BMP_temperature;BMP_pressure;BME280_temperature;BME280_humidity;BME280_pressure;Samples;Min_cycle;Max_cycle;Signal;HPM_P1;HPM_P2
2021/03/21 00:01:57;;;;;;;;;;;;;;;0.86;69.72;100916.97;1599777;88;20293;-77
2021/03/21 00:04:41;;;;;;;;;;;;;;;0.85;69.72;100919.06;1599643;88;20224;-78
2021/03/21 00:07:25;;;;;;;;;;;;;;;0.86;69.73;100916.97;1590021;88;20278;-78
2021/03/21 00:10:11;;;;;;;;;;;;;;;0.84;69.70;100913.52;1600424;88;20477;-78
2021/03/21 00:12:56;;;;;;;;;;;;;;;0.85;69.74;100905.05;1600824;88;20278;-78
2021/03/21 00:15:40;;;;;;;;;;;;;;;0.85;69.74;100897.42;1584312;88;20284;-77
2021/03/21 00:18:28;;;;;;;;;;;;;;;0.85;69.69;100893.60;1575339;89;20266;-77
2021/03/21 00:21:14;;;;;;;;;;;;;;;0.86;69.79;100884.28;1599190;88;20293;-77
2021/03/21 00:23:58;;;;;;;;;;;;;;;0.85;69.75;100879.60;1597707;88;20292;-77
2021/03/21 00:26:43;;;;;;;;;;;;;;;0.86;69.77;100862.23;1477630;88;10000628;-77
2021/03/21 00:29:27;;;;;;;;;;;;;;;0.87;69.71;100858.01;1606733;88;20273;-77
2021/03/21 00:32:11;;;;;;;;;;;;;;;0.88;69.78;100853.37;1585306;88;20458;-77
2021/03/21 00:34:56;;;;;;;;;;;;;;;0.88;69.78;100850.41;1594424;88;20224;-77
2021/03/21 00:37:41;;;;;;;;;;;;;;;0.90;69.74;100847.50;1589479;88;20270;-77
2021/03/21 00:40:26;;;;;;;;;;;;;;;0.90;69.79;100833.50;1611636;88;20551;-77
2021/03/21 00:43:10;;;;;;;;;;;;;;;0.89;69.79;100831.77;1580790;88;20584;-77
2021/03/21 00:45:55;;;;;;;;;;;;;;;0.89;69.78;100834.31;1597732;88;20282;-77
2021/03/21 00:48:42;;;;;;;;;;;;;;;0.87;69.79;100820.69;1605651;88;20259;-77
2021/03/21 00:51:27;;;;;;;;;;;;;;;0.89;69.82;100816.50;1586984;88;20251;-77
2021/03/21 00:54:11;;;;;;;;;;;;;;;0.87;69.80;100818.55;1604218;88;20189;-77
2021/03/21 00:56:56;;;;;;;;;;;;;;;0.87;69.80;100818.14;1610190;88;20251;-78
2021/03/21 00:59:41;;;;;;;;;;;;;;;0.88;69.84;100810.09;1589523;88;20323;-78
2021/03/21 01:02:25;;;;;;;;;;;;;;;0.87;69.81;100800.32;1606071;88;20669;-78
2021/03/21 01:05:13;;;;;;;;;;;;;;;0.89;69.88;100787.63;1606723;88;20299;-78
2021/03/21 01:07:58;;;;;;;;;;;;;;;0.89;69.86;100791.45;1571068;88;20619;-77
2021/03/21 01:10:42;;;;;;;;;;;;;;;0.87;69.85;100780.37;1604784;88;20400;-78
2021/03/21 01:13:27;;;;;;;;;;;;;;;0.86;69.89;100771.88;1592277;88;20420;-77
2021/03/21 01:16:15;;;;;;;;;;;;;;;0.87;69.89;100765.95;1610919;88;20330;-78
2021/03/21 01:19:00;;;;;;;;;;;;;;;0.86;69.93;100756.59;1598515;88;20419;-76
2021/03/21 01:21:45;;;;;;;;;;;;;;;0.87;69.94;100753.64;1612942;88;20718;-75
2021/03/21 01:24:30;;;;;;;;;;;;;;;0.85;69.98;100747.65;1614244;88;20308;-75
2021/03/21 01:27:15;;;;;;;;;;;;;;;0.86;70.03;100737.92;1604778;88;20278;-76
2021/03/21 01:30:00;;;;;;;;;;;;;;;0.85;70.05;100738.33;1600411;88;20607;-77
2021/03/21 01:32:45;;;;;;;;;;;;;;;0.85;70.05;100737.06;1587795;88;20630;-77
2021/03/21 01:35:29;;;;;;;;;;;;;;;0.83;70.08;100718.34;1608426;88;21426;-77
2021/03/21 01:38:14;;;;;;;;;;;;;;;0.83;70.16;100705.61;1606040;88;20307;-77
2021/03/21 01:41:02;;;;;;;;;;;;;;;0.83;70.17;100706.89;1596632;88;20314;-77
2021/03/21 01:43:46;;;;;;;;;;;;;;;0.83;70.21;100698.39;1596875;88;20318;-77
2021/03/21 01:46:37;;;;;;;;;;;;;;;0.81;70.20;100698.77;1608419;88;20311;-77
2021/03/21 01:49:31;;;;;;;;;;;;;;;0.80;70.25;100694.08;1589301;88;20323;-77
2021/03/21 01:52:35;;;;;;;;;;;;;;;0.79;70.30;100678.36;1595069;88;20203;-76
2021/03/21 01:55:21;;;;;;;;;;;;;;;0.78;70.35;100671.55;1606604;88;20551;-77
2021/03/21 01:58:06;;;;;;;;;;;;;;;0.77;70.39;100668.97;1600822;88;20337;-77
2021/03/21 02:00:52;;;;;;;;;;;;;;;0.74;70.37;100663.39;1605742;88;20313;-77
2021/03/21 02:03:37;;;;;;;;;;;;;;;0.74;70.49;100662.12;1615572;88;20442;-77
2021/03/21 02:06:39;;;;;;;;;;;;;;;0.75;70.49;100656.20;1591831;88;20413;-77
2021/03/21 02:09:48;;;;;;;;;;;;;;;0.74;70.51;100638.36;1597667;88;20316;-77
2021/03/21 02:12:46;;;;;;;;;;;;;;;0.73;70.52;100648.95;1599454;88;20639;-77
2021/03/21 02:15:43;;;;;;;;;;;;;;;0.70;70.53;100636.15;1601122;88;20318;-77
2021/03/21 02:18:48;;;;;;;;;;;;;;;0.69;70.59;100643.74;1605598;88;20974;-77
2021/03/21 02:21:36;;;;;;;;;;;;;;;0.67;70.64;100638.62;1610889;88;20294;-77
2021/03/21 02:24:27;;;;;;;;;;;;;;;0.68;70.64;100631.84;1599159;88;20758;-77
2021/03/21 02:27:50;;;;;;;;;;;;;;;0.68;70.73;100624.21;1593870;88;20270;-77
2021/03/21 02:30:44;;;;;;;;;;;;;;;0.65;70.79;100626.27;1597916;88;20527;-77
2021/03/21 02:33:35;;;;;;;;;;;;;;;0.62;70.80;100621.11;1605753;88;20302;-77
2021/03/21 02:36:22;;;;;;;;;;;;;;;0.57;70.96;100609.95;1598515;87;20264;-77
2021/03/21 02:39:26;;;;;;;;;;;;;;;0.55;70.97;100603.56;1591716;88;20280;-77
2021/03/21 02:42:17;;;;;;;;;;;;;;;0.54;70.98;100591.66;1596465;88;20324;-77
2021/03/21 02:45:20;;;;;;;;;;;;;;;0.52;71.01;100600.11;1595468;88;20293;-77
2021/03/21 02:48:10;;;;;;;;;;;;;;;0.51;71.06;100590.35;1573198;88;20274;-77
2021/03/21 02:50:58;;;;;;;;;;;;;;;0.49;71.07;100584.36;1629276;88;20270;-77
2021/03/21 02:53:52;;;;;;;;;;;;;;;0.49;71.05;100571.64;1628310;88;20914;-77
2021/03/21 02:56:39;;;;;;;;;;;;;;;0.48;71.15;100575.42;1609834;88;20188;-77
2021/03/21 02:59:25;;;;;;;;;;;;;;;0.47;71.22;100555.90;1594600;88;20266;-77
2021/03/21 03:02:16;;;;;;;;;;;;;;;0.47;71.25;100555.48;1616238;88;20167;-77
2021/03/21 03:05:13;;;;;;;;;;;;;;;0.47;71.29;100544.04;1598037;88;20268;-77
2021/03/21 03:08:10;;;;;;;;;;;;;;;0.47;71.38;100543.18;1596467;88;20264;-77
2021/03/21 03:11:00;;;;;;;;;;;;;;;0.45;71.38;100533.38;1615779;86;20775;-77
2021/03/21 03:13:47;;;;;;;;;;;;;;;0.43;71.42;100533.75;1598262;88;20268;-77
2021/03/21 03:16:39;;;;;;;;;;;;;;;0.42;71.47;100534.58;1622615;87;20548;-77
2021/03/21 03:19:42;;;;;;;;;;;;;;;0.40;71.53;100523.10;1616873;87;20353;-77
2021/03/21 03:22:42;;;;;;;;;;;;;;;0.40;71.54;100525.64;1613454;87;20295;-77
2021/03/21 03:25:32;;;;;;;;;;;;;;;0.38;71.56;100517.12;1622524;87;20274;-77
2021/03/21 03:28:24;;;;;;;;;;;;;;;0.38;71.62;100501.86;1596008;88;20288;-77
2021/03/21 03:31:17;;;;;;;;;;;;;;;0.37;71.66;100496.33;1611791;87;20287;-77
2021/03/21 03:34:02;;;;;;;;;;;;;;;0.36;71.73;100488.24;1614627;87;20281;-77
2021/03/21 03:36:47;;;;;;;;;;;;;;;0.37;71.81;100482.33;1589121;87;20278;-77
2021/03/21 03:39:32;;;;;;;;;;;;;;;0.35;71.84;100480.58;1625822;87;20419;-77
2021/03/21 03:42:32;;;;;;;;;;;;;;;0.37;71.86;100482.75;1617967;87;20173;-77
2021/03/21 03:45:23;;;;;;;;;;;;;;;0.36;71.88;100474.26;1621917;87;20282;-77
2021/03/21 03:48:29;;;;;;;;;;;;;;;0.35;71.91;100466.18;1613604;87;20275;-77
2021/03/21 03:51:23;;;;;;;;;;;;;;;0.37;71.92;100457.31;1600170;87;20508;-76
2021/03/21 03:54:28;;;;;;;;;;;;;;;0.37;71.99;100456.05;1595448;87;20287;-76
2021/03/21 03:57:34;;;;;;;;;;;;;;;0.36;72.00;100445.42;1591812;88;20262;-76
2021/03/21 04:00:36;;;;;;;;;;;;;;;0.36;72.06;100440.34;1551426;91;20289;-77
2021/03/21 04:03:30;;;;;;;;;;;;;;;0.35;72.19;100427.17;1554403;91;20311;-76
2021/03/21 04:06:27;;;;;;;;;;;;;;;0.32;72.15;100418.66;1562296;91;20500;-76
2021/03/21 04:09:35;;;;;;;;;;;;;;;0.33;72.23;100408.06;1571570;90;20285;-76
2021/03/21 04:12:28;;;;;;;;;;;;;;;0.32;72.24;100408.89;1555021;90;20217;-77
2021/03/21 04:15:16;;;;;;;;;;;;;;;0.32;72.27;100407.63;1559856;91;20297;-76
2021/03/21 04:18:06;;;;;;;;;;;;;;;0.33;72.30;100412.74;1547972;91;20284;-76
2021/03/21 04:20:54;;;;;;;;;;;;;;;0.35;72.33;100410.64;1559355;91;20290;-76
2021/03/21 04:23:48;;;;;;;;;;;;;;;0.35;72.40;100404.28;1546136;91;20196;-76
2021/03/21 04:26:44;;;;;;;;;;;;;;;0.37;72.42;100398.82;1519728;93;20294;-76
2021/03/21 04:29:50;;;;;;;;;;;;;;;0.37;72.43;100392.05;1527374;91;20336;-76
2021/03/21 04:32:38;;;;;;;;;;;;;;;0.37;72.45;100375.52;1551321;91;20789;-76
2021/03/21 04:35:35;;;;;;;;;;;;;;;0.39;72.53;100385.73;1608908;87;20263;-76
2021/03/21 04:38:23;;;;;;;;;;;;;;;0.40;72.57;100386.17;1606834;88;20250;-76
2021/03/21 04:41:10;;;;;;;;;;;;;;;0.41;72.61;100384.93;1618250;88;20301;-76
2021/03/21 04:44:06;;;;;;;;;;;;;;;0.42;72.66;100390.47;1595329;88;20254;-77
2021/03/21 04:46:57;;;;;;;;;;;;;;;0.44;72.71;100379.91;1607468;88;20258;-77
2021/03/21 04:49:41;;;;;;;;;;;;;;;0.45;72.77;100375.27;1626688;87;20255;-77
2021/03/21 04:52:49;;;;;;;;;;;;;;;0.47;72.80;100370.22;1594634;87;20271;-77
2021/03/21 04:55:41;;;;;;;;;;;;;;;0.47;72.84;100365.98;1618307;87;20291;-77
2021/03/21 04:58:38;;;;;;;;;;;;;;;0.46;72.94;100360.45;1586840;88;20217;-77
2021/03/21 05:01:28;;;;;;;;;;;;;;;0.48;72.96;100349.90;1618948;88;20290;-77
2021/03/21 05:04:25;;;;;;;;;;;;;;;0.50;73.02;100352.47;1615496;88;20310;-77
2021/03/21 05:07:33;;;;;;;;;;;;;;;0.50;73.01;100349.52;1607811;88;20669;-76
2021/03/21 05:10:24;;;;;;;;;;;;;;;0.52;73.03;100347.83;1620468;87;20344;-77
2021/03/21 05:13:15;;;;;;;;;;;;;;;0.54;73.08;100341.50;1560725;90;20993;-76
2021/03/21 05:16:03;;;;;;;;;;;;;;;0.56;73.15;100338.16;1552903;90;20717;-76
2021/03/21 05:19:09;;;;;;;;;;;;;;;0.57;73.16;100331.38;1554364;90;20321;-77
2021/03/21 05:22:03;;;;;;;;;;;;;;;0.59;73.17;100322.09;1564168;90;20671;-76
2021/03/21 05:25:07;;;;;;;;;;;;;;;0.60;73.26;100318.31;1553441;90;21133;-77
2021/03/21 05:28:04;;;;;;;;;;;;;;;0.61;73.28;100319.17;1554494;90;20333;-77
2021/03/21 05:30:49;;;;;;;;;;;;;;;0.64;73.33;100313.73;1554845;90;20376;-77
2021/03/21 05:33:34;;;;;;;;;;;;;;;0.65;73.29;100301.86;1554133;92;20324;-77
2021/03/21 05:36:28;;;;;;;;;;;;;;;0.67;73.39;100307.84;1530569;93;20442;-77
2021/03/21 05:39:31;;;;;;;;;;;;;;;0.69;73.45;100304.05;1531113;93;20338;-76
2021/03/21 05:42:48;;;;;;;;;;;;;;;0.71;73.48;100301.13;1548952;92;20320;-77
2021/03/21 05:45:53;;;;;;;;;;;;;;;0.74;73.40;100305.85;1530870;93;20330;-76
2021/03/21 05:48:59;;;;;;;;;;;;;;;0.76;73.53;100301.66;1501902;94;20329;-77
2021/03/21 05:52:16;;;;;;;;;;;;;;;0.79;73.48;100299.16;1540770;92;20285;-76
2021/03/21 05:55:09;;;;;;;;;;;;;;;0.80;73.61;100300.02;1543861;91;20179;-76
2021/03/21 05:58:06;;;;;;;;;;;;;;;0.83;73.69;100288.63;1548387;91;20322;-76
2021/03/21 06:00:54;;;;;;;;;;;;;;;0.84;73.68;100279.75;1474489;94;20334;-76
2021/03/21 06:04:01;;;;;;;;;;;;;;;0.86;73.76;100276.81;1488856;94;20300;-76
2021/03/21 06:07:13;;;;;;;;;;;;;;;0.89;73.81;100278.14;1490686;94;20585;-76
2021/03/21 06:10:23;;;;;;;;;;;;;;;0.92;73.86;100271.83;1489004;94;20359;-76
2021/03/21 06:13:43;;;;;;;;;;;;;;;0.95;73.90;100262.11;1490004;94;20293;-76
2021/03/21 06:16:36;;;;;;;;;;;;;;;0.99;73.92;100261.34;1486263;94;20299;-76
2021/03/21 06:19:36;;;;;;;;;;;;;;;1.04;74.00;100257.59;1485977;95;20323;-76
2021/03/21 06:22:33;;;;;;;;;;;;;;;1.05;74.02;100247.83;1484496;94;20491;-76
2021/03/21 06:25:39;;;;;;;;;;;;;;;1.07;74.02;100247.43;1488143;93;20659;-76
2021/03/21 06:28:42;;;;;;;;;;;;;;;1.10;74.10;100234.34;1521131;93;20330;-76
2021/03/21 06:31:59;;;;;;;;;;;;;;;1.14;74.17;100235.24;1513887;93;20754;-75
2021/03/21 06:34:59;;;;;;;;;;;;;;;1.17;74.22;100239.97;1519063;93;20357;-76
2021/03/21 06:38:05;;;;;;;;;;;;;;;1.19;74.17;100243.39;1567582;88;21104;-76
2021/03/21 06:41:12;;;;;;;;;;;;;;;1.23;74.28;100240.06;1599500;88;20306;-76
2021/03/21 06:44:06;;;;;;;;;;;;;;;1.29;74.35;100242.70;1596099;88;20420;-76
2021/03/21 06:47:21;;;;;;;;;;;;;;;1.35;74.31;100235.99;1597419;88;20355;-77
2021/03/21 06:50:21;;;;;;;;;;;;;;;1.39;74.42;100234.79;1590450;88;20342;-77
2021/03/21 06:53:18;;;;;;;;;;;;;;;1.45;74.48;100230.20;1597572;87;20423;-77
2021/03/21 06:56:16;;;;;;;;;;;;;;;1.53;74.53;100220.98;1601195;88;20311;-77
2021/03/21 06:59:16;;;;;;;;;;;;;;;1.54;74.47;100225.24;1571219;89;20336;-77
2021/03/21 07:02:22;;;;;;;;;;;;;;;1.52;74.50;100230.73;1575477;89;20627;-77
2021/03/21 07:05:22;;;;;;;;;;;;;;;1.54;74.57;100230.34;1566199;89;20345;-76
2021/03/21 07:08:13;;;;;;;;;;;;;;;1.59;74.69;100223.58;1564104;90;20316;-76
2021/03/21 07:11:18;;;;;;;;;;;;;;;1.62;74.70;100228.30;1529808;92;20332;-76
2021/03/21 07:14:39;;;;;;;;;;;;;;;1.63;74.71;100224.06;1569081;90;20690;-76
2021/03/21 07:17:36;;;;;;;;;;;;;;;1.61;74.77;100221.50;1568904;90;20331;-75
2021/03/21 07:20:46;;;;;;;;;;;;;;;1.64;74.90;100214.31;1532422;92;20800;-75
2021/03/21 07:23:51;;;;;;;;;;;;;;;1.65;74.97;100216.87;1575699;90;20334;-75
2021/03/21 07:27:08;;;;;;;;;;;;;;;1.68;74.95;100203.74;1561029;90;20713;-75
2021/03/21 07:29:59;;;;;;;;;;;;;;;1.68;75.02;100212.66;1567984;90;21288;-74
2021/03/21 07:32:56;;;;;;;;;;;;;;;1.71;75.10;100197.41;1506342;93;20328;-74
2021/03/21 07:35:47;;;;;;;;;;;;;;;1.73;75.08;100199.56;1590051;87;20320;-74
2021/03/21 07:38:49;;;;;;;;;;;;;;;1.77;75.26;100203.86;1593107;87;20311;-75
2021/03/21 07:41:54;;;;;;;;;;;;;;;1.80;75.20;100194.98;1628247;87;20423;-75
2021/03/21 07:44:57;;;;;;;;;;;;;;;1.85;75.31;100191.66;1628585;87;20402;-76
2021/03/21 07:48:11;;;;;;;;;;;;;;;1.93;75.36;100196.43;1562546;90;20683;-76
2021/03/21 07:51:17;;;;;;;;;;;;;;;2.00;75.33;100184.61;1563928;90;20359;-77
2021/03/21 07:54:31;;;;;;;;;;;;;;;2.08;75.42;100172.77;1565083;90;20855;-77
2021/03/21 07:57:24;;;;;;;;;;;;;;;2.13;75.40;100160.07;1565840;90;20307;-77
2021/03/21 08:00:11;;;;;;;;;;;;;;;2.15;75.43;100152.87;1564843;90;21146;-77
2021/03/21 08:03:16;;;;;;;;;;;;;;;2.20;75.41;100156.75;1565337;90;20264;-77
2021/03/21 08:06:01;;;;;;;;;;;;;;;2.20;75.45;100147.41;1566257;90;20489;-77
2021/03/21 08:08:48;;;;;;;;;;;;;;;2.26;75.50;100150.44;1518310;93;20359;-77
2021/03/21 08:11:36;;;;;;;;;;;;;;;2.30;75.62;100149.20;1532973;90;21277;-78
2021/03/21 08:14:27;;;;;;;;;;;;;;;2.39;75.63;100148.86;1531260;91;20290;-78
2021/03/21 08:17:27;;;;;;;;;;;;;;;2.43;75.62;100148.91;1525008;91;20319;-78
2021/03/21 08:20:29;;;;;;;;;;;;;;;2.47;75.70;100147.23;1523609;91;20285;-78
2021/03/21 08:23:29;;;;;;;;;;;;;;;2.52;75.69;100130.27;1575866;88;20330;-78
2021/03/21 08:26:16;;;;;;;;;;;;;;;2.57;75.76;100128.62;1600778;87;20680;-78
2021/03/21 08:29:04;;;;;;;;;;;;;;;2.65;75.73;100132.06;1607074;87;21373;-76
2021/03/21 08:32:08;;;;;;;;;;;;;;;2.68;75.77;100128.25;1613846;87;20565;-76
2021/03/21 08:34:53;;;;;;;;;;;;;;;2.73;75.72;100125.32;1602426;87;20326;-75
2021/03/21 08:37:45;;;;;;;;;;;;;;;2.79;75.88;100123.23;1599406;87;20294;-75
2021/03/21 08:40:38;;;;;;;;;;;;;;;2.87;75.93;100120.31;1607691;87;20318;-75
2021/03/21 08:43:25;;;;;;;;;;;;;;;2.94;75.90;100115.69;1598515;87;20319;-76
2021/03/21 08:46:16;;;;;;;;;;;;;;;2.97;75.86;100110.17;1600301;87;20290;-76
2021/03/21 08:49:08;;;;;;;;;;;;;;;3.03;75.95;100110.64;1611829;87;20314;-76
2021/03/21 08:51:53;;;;;;;;;;;;;;;3.06;75.89;100110.66;1619981;87;20307;-77
2021/03/21 08:54:38;;;;;;;;;;;;;;;3.06;75.92;100105.55;1615417;87;20407;-76
2021/03/21 08:57:36;;;;;;;;;;;;;;;3.08;75.97;100106.42;1611968;87;20297;-76
2021/03/21 09:00:30;;;;;;;;;;;;;;;3.09;75.91;100109.41;1605138;87;20282;-76
2021/03/21 09:03:31;;;;;;;;;;;;;;;3.08;75.88;100108.97;1619194;87;20196;-76
2021/03/21 09:06:29;;;;;;;;;;;;;;;3.09;75.94;100103.44;1600939;87;20286;-76
2021/03/21 09:09:25;;;;;;;;;;;;;;;3.09;76.04;100108.13;1626013;87;20303;-76
2021/03/21 09:12:28;;;;;;;;;;;;;;;3.09;75.96;100095.36;1608479;87;20302;-76
2021/03/21 09:15:33;;;;;;;;;;;;;;;3.12;76.11;100109.39;1614185;87;20274;-76
2021/03/21 09:18:20;;;;;;;;;;;;;;;3.19;76.28;100111.56;1588585;88;20295;-76
2021/03/21 09:21:27;;;;;;;;;;;;;;;3.23;76.15;100102.64;1596712;88;20502;-76
2021/03/21 09:24:24;;;;;;;;;;;;;;;3.24;76.20;100099.67;1587675;88;20519;-76
2021/03/21 09:27:20;;;;;;;;;;;;;;;3.28;76.24;100102.25;1607295;88;21109;-76
2021/03/21 09:30:41;;;;;;;;;;;;;;;3.29;76.23;100100.12;1587301;88;20293;-76
2021/03/21 09:33:38;;;;;;;;;;;;;;;3.33;76.33;100100.99;1600349;88;20600;-77
2021/03/21 09:36:25;;;;;;;;;;;;;;;3.36;76.33;100099.73;1610988;88;20307;-74
2021/03/21 09:39:13;;;;;;;;;;;;;;;3.39;76.38;100099.75;1603324;88;20301;-74
2021/03/21 09:41:58;;;;;;;;;;;;;;;3.43;76.44;100105.73;1607973;88;20193;-74
2021/03/21 09:44:44;;;;;;;;;;;;;;;3.44;76.43;100108.72;1609325;88;20316;-74
2021/03/21 09:47:54;;;;;;;;;;;;;;;3.45;76.39;100108.72;1599700;88;20197;-74
2021/03/21 09:51:03;;;;;;;;;;;;;;;3.45;76.53;100113.83;1612015;87;20182;-75
2021/03/21 09:54:03;;;;;;;;;;;;;;;3.51;76.62;100111.30;1605123;87;20292;-75
2021/03/21 09:57:07;;;;;;;;;;;;;;;3.58;76.75;100105.80;1600443;87;20473;-75
2021/03/21 09:59:58;;;;;;;;;;;;;;;3.65;76.72;100104.94;1609952;88;20300;-74
2021/03/21 10:02:46;;;;;;;;;;;;;;;3.73;76.81;100101.14;1600384;88;20324;-74
2021/03/21 10:05:51;;;;;;;;;;;;;;;3.79;76.82;100104.99;1606327;88;20559;-74
2021/03/21 10:09:01;;;;;;;;;;;;;;;3.84;76.87;100104.16;1609219;89;20448;-74
2021/03/21 10:11:51;;;;;;;;;;;;;;;3.92;76.88;100106.74;1593750;88;20323;-74
2021/03/21 10:14:39;;;;;;;;;;;;;;;3.98;76.91;100108.89;1606133;88;20307;-74
2021/03/21 10:17:30;;;;;;;;;;;;;;;4.02;76.92;100110.17;1590949;87;20296;-74
2021/03/21 10:20:16;;;;;;;;;;;;;;;4.07;76.97;100104.65;1583673;88;20438;-75
2021/03/21 10:23:01;;;;;;;;;;;;;;;4.11;76.97;100106.36;1580722;88;20321;-75
2021/03/21 10:25:48;;;;;;;;;;;;;;;4.15;77.03;100111.91;1577410;88;20706;-74
2021/03/21 10:28:36;;;;;;;;;;;;;;;4.19;77.09;100106.77;1598319;88;20296;-75
2021/03/21 10:31:27;;;;;;;;;;;;;;;4.22;77.07;100105.92;1594376;88;20292;-74
2021/03/21 10:34:15;;;;;;;;;;;;;;;4.25;77.08;100105.94;1591600;87;20304;-74
2021/03/21 10:36:59;;;;;;;;;;;;;;;4.30;77.15;100103.81;1578148;88;20331;-74
2021/03/21 10:39:47;;;;;;;;;;;;;;;4.37;77.18;100107.66;1597453;88;20626;-74
2021/03/21 10:42:38;;;;;;;;;;;;;;;4.44;77.24;100103.83;1584696;88;20304;-74
2021/03/21 10:45:39;;;;;;;;;;;;;;;4.51;77.29;100102.13;1617947;88;20306;-74
2021/03/21 10:48:30;;;;;;;;;;;;;;;4.54;77.24;100094.02;1619039;88;20330;-74
2021/03/21 10:51:15;;;;;;;;;;;;;;;4.57;77.24;100095.72;1618539;88;20338;-75
2021/03/21 10:54:18;;;;;;;;;;;;;;;4.59;77.30;100097.43;1604429;88;20306;-75
2021/03/21 10:57:32;;;;;;;;;;;;;;;4.61;77.33;100094.44;1609605;88;20332;-74
2021/03/21 11:00:19;;;;;;;;;;;;;;;4.65;77.36;100097.43;1597069;88;20544;-76
2021/03/21 11:03:11;;;;;;;;;;;;;;;4.68;77.40;100099.10;1583072;88;20252;-76
2021/03/21 11:05:56;;;;;;;;;;;;;;;4.70;77.44;100097.39;1580508;88;20196;-76
2021/03/21 11:08:40;;;;;;;;;;;;;;;4.76;77.55;100093.98;1581176;88;20293;-76
2021/03/21 11:11:33;;;;;;;;;;;;;;;4.83;77.54;100093.97;1599376;87;20301;-76
2021/03/21 11:14:27;;;;;;;;;;;;;;;4.92;77.64;100091.40;1600583;88;20269;-76
2021/03/21 11:17:15;;;;;;;;;;;;;;;5.03;77.72;100084.13;1587273;88;20287;-76
2021/03/21 11:19:59;;;;;;;;;;;;;;;5.14;77.73;100082.39;1582381;88;20270;-76
2021/03/21 11:22:43;;;;;;;;;;;;;;;5.23;77.77;100079.34;1601892;88;20336;-76
2021/03/21 11:25:35;;;;;;;;;;;;;;;5.33;77.76;100077.18;1594362;88;20303;-75
2021/03/21 11:28:36;;;;;;;;;;;;;;;5.43;77.74;100074.16;1597700;88;20303;-74
2021/03/21 11:31:42;;;;;;;;;;;;;;;5.49;77.74;100074.13;1581068;88;20413;-74
2021/03/21 11:34:33;;;;;;;;;;;;;;;5.57;77.76;100076.67;1585946;88;20697;-74
2021/03/21 11:37:22;;;;;;;;;;;;;;;5.60;77.75;100074.94;1586923;88;20327;-74
2021/03/21 11:40:13;;;;;;;;;;;;;;;5.64;77.70;100070.66;1574793;88;20322;-74
2021/03/21 11:43:23;;;;;;;;;;;;;;;5.64;77.68;100074.07;1597284;88;21013;-74
2021/03/21 11:46:13;;;;;;;;;;;;;;;5.64;77.69;100068.94;1601264;88;20424;-75
2021/03/21 11:48:58;;;;;;;;;;;;;;;5.66;77.73;100071.50;1574294;88;20326;-74
2021/03/21 11:51:45;;;;;;;;;;;;;;;5.64;77.74;100068.94;1579047;88;20276;-74
2021/03/21 11:54:32;;;;;;;;;;;;;;;5.60;77.72;100073.66;1587112;88;20277;-74
2021/03/21 11:57:42;;;;;;;;;;;;;;;5.58;77.80;100078.38;1593312;88;20185;-75
2021/03/21 12:00:28;;;;;;;;;;;;;;;5.53;77.78;100074.55;1589906;88;20264;-75
2021/03/21 12:03:18;;;;;;;;;;;;;;;5.48;77.82;100078.84;1586319;88;20210;-75
2021/03/21 12:06:06;;;;;;;;;;;;;;;5.49;77.94;100079.69;1592868;88;20206;-75
2021/03/21 12:08:51;;;;;;;;;;;;;;;5.50;77.99;100083.96;1587174;88;20264;-75
2021/03/21 12:11:39;;;;;;;;;;;;;;;5.51;78.02;100085.66;1586185;88;20288;-74
2021/03/21 12:14:48;;;;;;;;;;;;;;;5.51;78.04;100080.54;1586115;88;20475;-75
2021/03/21 12:17:35;;;;;;;;;;;;;;;5.49;78.02;100077.98;1586318;88;20256;-75
2021/03/21 12:20:38;;;;;;;;;;;;;;;5.48;78.10;100080.13;1580923;88;20291;-74
2021/03/21 12:23:38;;;;;;;;;;;;;;;5.49;78.13;100079.69;1593899;88;20201;-74
2021/03/21 12:26:44;;;;;;;;;;;;;;;5.46;78.12;100083.12;1583148;88;20296;-75
2021/03/21 12:29:31;;;;;;;;;;;;;;;5.43;78.18;100088.26;1584631;88;20277;-75
2021/03/21 12:32:36;;;;;;;;;;;;;;;5.42;78.21;100096.81;1593003;88;20276;-75
2021/03/21 12:35:27;;;;;;;;;;;;;;;5.41;78.24;100090.41;1592791;88;20281;-75
2021/03/21 12:38:34;;;;;;;;;;;;;;;5.35;78.22;100086.58;1590131;88;20267;-75
2021/03/21 12:41:30;;;;;;;;;;;;;;;5.26;78.17;100096.00;1592204;88;20296;-75
2021/03/21 12:44:17;;;;;;;;;;;;;;;5.21;78.44;100095.59;1594354;88;20289;-74
2021/03/21 12:47:21;;;;;;;;;;;;;;;5.20;78.56;100090.89;1586886;88;20619;-74
2021/03/21 12:50:28;;;;;;;;;;;;;;;5.20;78.48;100092.17;1591003;88;20635;-74
2021/03/21 12:53:25;;;;;;;;;;;;;;;5.22;78.57;100090.88;1585963;88;20311;-74
2021/03/21 12:56:10;;;;;;;;;;;;;;;5.21;78.58;100091.31;1551975;88;20334;-75
2021/03/21 12:58:55;;;;;;;;;;;;;;;5.25;78.69;100093.02;1587038;88;20433;-75
2021/03/21 13:01:45;;;;;;;;;;;;;;;5.27;78.70;100092.58;1576376;88;20323;-74
2021/03/21 13:04:29;;;;;;;;;;;;;;;5.34;78.77;100102.39;1592168;88;20300;-75
2021/03/21 13:07:14;;;;;;;;;;;;;;;5.38;78.76;100098.95;1575195;88;20317;-75
2021/03/21 13:09:59;;;;;;;;;;;;;;;5.38;78.70;100100.67;1584601;88;20317;-75
2021/03/21 13:12:43;;;;;;;;;;;;;;;5.43;78.85;100105.35;1580020;88;20347;-75
2021/03/21 13:15:29;;;;;;;;;;;;;;;5.46;78.84;100104.06;1586841;88;20304;-75
2021/03/21 13:18:19;;;;;;;;;;;;;;;5.48;78.85;100108.33;1584778;87;20332;-76
2021/03/21 13:21:01;;;;;;;;;;;;;;;5.51;78.86;100112.16;1596576;87;20438;-76
2021/03/21 13:23:46;;;;;;;;;;;;;;;5.53;78.77;100113.02;1599938;88;20304;-75
2021/03/21 13:26:30;;;;;;;;;;;;;;;5.53;78.79;100118.14;1597713;88;20714;-76
2021/03/21 13:29:15;;;;;;;;;;;;;;;5.50;78.82;100118.15;1596895;89;20293;-76
2021/03/21 13:32:00;;;;;;;;;;;;;;;5.52;78.89;100111.73;1598400;88;20307;-76
2021/03/21 13:34:44;;;;;;;;;;;;;;;5.57;78.98;100118.98;1597582;88;20320;-76
2021/03/21 13:37:29;;;;;;;;;;;;;;;5.69;79.10;100113.80;1591922;88;20302;-76
2021/03/21 13:40:23;;;;;;;;;;;;;;;5.79;79.04;100124.42;1574612;89;20304;-76
2021/03/21 13:43:09;;;;;;;;;;;;;;;5.82;78.92;100130.82;1603615;88;20333;-75
2021/03/21 13:45:55;;;;;;;;;;;;;;;5.85;78.97;100129.95;1602517;87;20277;-76
2021/03/21 13:48:39;;;;;;;;;;;;;;;5.87;78.96;100137.22;1603099;87;20763;-76
2021/03/21 13:51:23;;;;;;;;;;;;;;;5.87;78.98;100130.38;1608571;88;20277;-77
2021/03/21 13:54:08;;;;;;;;;;;;;;;5.89;78.90;100131.67;1597761;88;20192;-75
2021/03/21 13:56:53;;;;;;;;;;;;;;;5.89;78.83;100139.38;1590972;88;20270;-75
2021/03/21 13:59:37;;;;;;;;;;;;;;;5.86;78.90;100145.77;1591235;88;20610;-75
2021/03/21 14:02:21;;;;;;;;;;;;;;;5.82;78.83;100149.20;1610733;88;20188;-75
2021/03/21 14:05:07;;;;;;;;;;;;;;;5.80;78.87;100148.36;1597433;87;20193;-75
2021/03/21 14:07:52;;;;;;;;;;;;;;;5.77;78.94;100146.66;1608717;88;20269;-75
2021/03/21 14:10:37;;;;;;;;;;;;;;;5.71;78.88;100142.88;1603851;87;20314;-75
2021/03/21 14:13:22;;;;;;;;;;;;;;;5.68;78.96;100149.30;1591032;87;20271;-75
2021/03/21 14:16:07;;;;;;;;;;;;;;;5.66;78.99;100153.58;1563558;88;20546;-75
2021/03/21 14:18:51;;;;;;;;;;;;;;;5.63;79.00;100154.44;1591342;87;20316;-74
2021/03/21 14:21:36;;;;;;;;;;;;;;;5.61;79.03;100159.15;1593266;88;20292;-77
2021/03/21 14:24:20;;;;;;;;;;;;;;;5.59;79.08;100159.58;1577285;88;20287;-77
2021/03/21 14:27:06;;;;;;;;;;;;;;;5.57;79.10;100162.15;1591533;88;20316;-76
2021/03/21 14:29:50;;;;;;;;;;;;;;;5.56;79.15;100164.29;1576376;88;20689;-76
2021/03/21 14:32:36;;;;;;;;;;;;;;;5.56;79.22;100171.12;1572032;88;33176;-77
2021/03/21 14:35:27;;;;;;;;;;;;;;;5.57;79.30;100186.94;1593263;88;20283;-77
2021/03/21 14:38:14;;;;;;;;;;;;;;;5.56;79.43;100190.36;1595224;88;20310;-77
2021/03/21 14:40:59;;;;;;;;;;;;;;;5.49;79.27;100184.82;1586584;88;20598;-77
2021/03/21 14:43:43;;;;;;;;;;;;;;;5.38;79.26;100183.56;1588632;88;20318;-78
2021/03/21 14:46:28;;;;;;;;;;;;;;;5.27;79.34;100187.84;1590898;88;20357;-77
2021/03/21 14:49:12;;;;;;;;;;;;;;;5.20;79.35;100199.81;1597775;88;20292;-76
2021/03/21 14:51:57;;;;;;;;;;;;;;;5.19;79.51;100208.82;1588644;88;20554;-77
2021/03/21 14:54:42;;;;;;;;;;;;;;;5.22;79.69;100215.20;1591917;88;20312;-77
2021/03/21 14:57:26;;;;;;;;;;;;;;;5.26;79.72;100221.59;1598325;88;20304;-77
2021/03/21 15:00:18;;;;;;;;;;;;;;;5.29;79.73;100212.63;1599098;88;20344;-76